Time,TemperatureF,DewpointF,PressureIn,WindDirection,WindDirectionDegrees,WindSpeedMPH,WindSpeedGustMPH,Humidity,HourlyPrecipIn,Conditions,Clouds,dailyrainin,SoftwareType,DateUTC
2013-04-17 00:00:00,59.9,52.7,30.09,SW,234,2.0,4.0,77,0.00,,,0.00,Wunderground v.1.15,2013-04-17 04:00:00,
2013-04-17 00:10:00,60.1,52.9,30.08,WSW,258,2.0,2.0,77,0.00,,,0.00,Wunderground v.1.15,2013-04-17 04:10:00,
2013-04-17 00:15:00,60.1,52.9,30.08,SW,227,3.0,3.0,77,0.00,,,0.00,Wunderground v.1.15,2013-04-17 04:15:00,
2013-04-17 00:20:00,60.2,53.0,30.08,WSW,241,3.0,3.0,77,0.00,,,0.00,Wunderground v.1.15,2013-04-17 04:20:00,
2013-04-17 00:25:00,60.4,53.2,30.08,WSW,241,3.0,3.0,77,0.00,,,0.00,Wunderground v.1.15,2013-04-17 04:25:00,
2013-04-17 00:30:00,60.4,53.2,30.08,SW,227,3.0,3.0,77,0.00,,,0.00,Wunderground v.1.15,2013-04-17 04:30:00,
2013-04-17 00:35:00,60.4,53.2,30.08,South,184,2.0,5.0,77,0.00,,,0.00,Wunderground v.1.15,2013-04-17 04:35:00,
2013-04-17 00:40:00,60.4,53.2,30.08,South,190,2.0,2.0,77,0.00,,,0.00,Wunderground v.1.15,2013-04-17 04:40:00,
2013-04-17 00:45:00,60.5,53.3,30.08,SSW,206,3.0,3.0,77,0.00,,,0.00,Wunderground v.1.15,2013-04-17 04:45:00,
2013-04-17 00:50:00,60.7,53.4,30.08,WSW,241,2.0,2.0,77,0.00,,,0.00,Wunderground v.1.15,2013-04-17 04:50:00,
2013-04-17 00:55:00,60.7,53.4,30.08,WSW,242,2.0,4.0,77,0.00,,,0.00,Wunderground v.1.15,2013-04-17 04:55:00,
2013-04-17 01:00:00,60.7,53.4,30.08,South,191,2.0,4.0,77,0.00,,,0.00,Wunderground v.1.15,2013-04-17 05:00:00,
2013-04-17 01:05:00,60.9,53.6,30.07,SW,214,2.0,4.0,77,0.00,,,0.00,Wunderground v.1.15,2013-04-17 05:05:00,
2013-04-17 01:10:00,60.9,53.6,30.07,SW,229,2.0,2.0,77,0.00,,,0.00,Wunderground v.1.15,2013-04-17 05:10:00,
2013-04-17 01:15:00,60.9,53.6,30.07,South,188,2.0,4.0,77,0.00,,,0.00,Wunderground v.1.15,2013-04-17 05:15:00,
2013-04-17 01:25:00,60.9,53.6,30.08,WSW,243,1.0,4.0,77,0.00,,,0.00,Wunderground v.1.15,2013-04-17 05:25:00,
2013-04-17 01:35:00,60.7,53.8,30.08,WSW,242,1.0,1.0,78,0.00,,,0.00,Wunderground v.1.15,2013-04-17 05:35:00,
2013-04-17 01:45:00,60.5,53.6,30.08,WSW,242,1.0,1.0,78,0.00,,,0.00,Wunderground v.1.15,2013-04-17 05:45:00,
2013-04-17 01:50:00,60.5,53.6,30.08,WSW,242,0.0,0.0,78,0.00,,,0.00,Wunderground v.1.15,2013-04-17 05:50:00,
2013-04-17 02:00:00,60.4,53.9,30.08,WSW,242,1.0,1.0,79,0.00,,,0.00,Wunderground v.1.15,2013-04-17 06:00:00,
2013-04-17 02:05:00,60.5,54.0,30.08,SW,216,1.0,3.0,79,0.00,,,0.00,Wunderground v.1.15,2013-04-17 06:05:00,
2013-04-17 02:10:00,60.7,53.8,30.08,SW,223,1.0,1.0,78,0.00,,,0.00,Wunderground v.1.15,2013-04-17 06:10:00,
2013-04-17 02:15:00,60.5,54.0,30.08,SW,223,1.0,1.0,79,0.00,,,0.00,Wunderground v.1.15,2013-04-17 06:15:00,
2013-04-17 02:25:00,60.5,54.0,30.08,SW,223,1.0,1.0,79,0.00,,,0.00,Wunderground v.1.15,2013-04-17 06:25:00,
2013-04-17 02:35:00,60.5,54.3,30.08,SW,223,0.0,0.0,80,0.00,,,0.00,Wunderground v.1.15,2013-04-17 06:35:00,
2013-04-17 02:45:00,60.4,54.2,30.08,SW,223,0.0,0.0,80,0.00,,,0.00,Wunderground v.1.15,2013-04-17 06:45:00,
2013-04-17 02:55:00,60.2,54.0,30.07,SW,223,0.0,0.0,80,0.00,,,0.00,Wunderground v.1.15,2013-04-17 06:55:00,
2013-04-17 03:05:00,60.2,54.3,30.08,SW,223,0.0,0.0,81,0.00,,,0.00,Wunderground v.1.15,2013-04-17 07:05:00,
2013-04-17 03:15:00,60.1,54.2,30.08,SW,223,0.0,0.0,81,0.00,,,0.00,Wunderground v.1.15,2013-04-17 07:15:00,
2013-04-17 03:25:00,59.8,54.3,30.07,SW,223,0.0,0.0,82,0.00,,,0.00,Wunderground v.1.15,2013-04-17 07:25:00,
2013-04-17 03:35:00,59.8,54.6,30.07,SW,223,0.0,0.0,83,0.00,,,0.00,Wunderground v.1.15,2013-04-17 07:35:00,
2013-04-17 03:45:00,59.6,54.4,30.07,SW,223,0.0,0.0,83,0.00,,,0.00,Wunderground v.1.15,2013-04-17 07:45:00,
2013-04-17 03:55:00,59.8,54.6,30.07,SW,223,0.0,0.0,83,0.00,,,0.00,Wunderground v.1.15,2013-04-17 07:55:00,
2013-04-17 04:05:00,59.8,55.0,30.07,SW,223,0.0,0.0,84,0.00,,,0.00,Wunderground v.1.15,2013-04-17 08:05:00,
2013-04-17 04:15:00,59.8,55.0,30.07,SW,223,0.0,1.0,84,0.00,,,0.00,Wunderground v.1.15,2013-04-17 08:15:00,
2013-04-17 04:25:00,59.8,55.0,30.08,WNW,292,0.0,0.0,84,0.00,,,0.00,Wunderground v.1.15,2013-04-17 08:25:00,
2013-04-17 04:35:00,59.8,55.0,30.07,WNW,292,0.0,1.0,84,0.00,,,0.00,Wunderground v.1.15,2013-04-17 08:35:00,
2013-04-17 04:45:00,59.8,55.6,30.07,WNW,292,0.0,1.0,86,0.00,,,0.00,Wunderground v.1.15,2013-04-17 08:45:00,
2013-04-17 04:55:00,59.6,55.4,30.08,WNW,292,0.0,2.0,86,0.00,,,0.00,Wunderground v.1.15,2013-04-17 08:55:00,
2013-04-17 05:05:00,59.9,55.7,30.08,WNW,303,3.0,3.0,86,0.00,,,0.00,Wunderground v.1.15,2013-04-17 09:05:00,
2013-04-17 05:15:00,59.9,55.7,30.08,NW,321,3.0,4.0,86,0.00,,,0.00,Wunderground v.1.15,2013-04-17 09:15:00,
2013-04-17 05:25:00,59.2,54.4,30.08,North,350,3.0,3.0,84,0.00,,,0.00,Wunderground v.1.15,2013-04-17 09:25:00,
2013-04-17 05:35:00,58.6,53.8,30.08,NW,320,3.0,4.0,84,0.00,,,0.00,Wunderground v.1.15,2013-04-17 09:35:00,
2013-04-17 05:45:00,58.3,53.5,30.08,NNW,337,2.0,4.0,84,0.00,,,0.00,Wunderground v.1.15,2013-04-17 09:45:00,
2013-04-17 05:55:00,58.0,53.8,30.08,North,350,1.0,4.0,86,0.00,,,0.00,Wunderground v.1.15,2013-04-17 09:55:00,
2013-04-17 06:05:00,57.0,53.2,30.09,NE,46,2.0,2.0,87,0.00,,,0.00,Wunderground v.1.15,2013-04-17 10:05:00,
2013-04-17 06:15:00,56.2,52.4,30.09,NNE,24,2.0,2.0,87,0.00,,,0.00,Wunderground v.1.15,2013-04-17 10:15:00,
2013-04-17 06:25:00,55.0,50.3,30.09,ENE,57,3.0,7.0,84,0.00,,,0.00,Wunderground v.1.15,2013-04-17 10:25:00,
2013-04-17 06:35:00,54.7,49.0,30.10,North,360,3.0,3.0,81,0.00,,,0.00,Wunderground v.1.15,2013-04-17 10:35:00,
2013-04-17 06:45:00,54.7,48.6,30.10,NE,34,2.0,3.0,80,0.00,,,0.00,Wunderground v.1.15,2013-04-17 10:45:00,
2013-04-17 06:55:00,54.7,48.3,30.11,NNE,26,1.0,2.0,79,0.00,,,0.00,Wunderground v.1.15,2013-04-17 10:55:00,
2013-04-17 07:05:00,54.7,48.0,30.13,NNE,13,1.0,2.0,78,0.00,,,0.00,Wunderground v.1.15,2013-04-17 11:05:00,
2013-04-17 07:15:00,54.7,48.0,30.13,ENE,67,1.0,3.0,78,0.00,,,0.00,Wunderground v.1.15,2013-04-17 11:15:00,
2013-04-17 07:25:00,54.8,47.4,30.15,NW,315,1.0,4.0,76,0.00,,,0.00,Wunderground v.1.15,2013-04-17 11:25:00,
2013-04-17 07:35:00,55.0,46.5,30.16,North,5,1.0,4.0,73,0.00,,,0.00,Wunderground v.1.15,2013-04-17 11:35:00,
2013-04-17 07:45:00,55.0,45.8,30.16,NNE,17,2.0,3.0,71,0.00,,,0.00,Wunderground v.1.15,2013-04-17 11:45:00,
2013-04-17 07:55:00,55.0,45.4,30.17,NE,40,3.0,6.0,70,0.00,,,0.00,Wunderground v.1.15,2013-04-17 11:55:00,
2013-04-17 08:05:00,55.1,45.5,30.17,NE,36,2.0,2.0,70,0.00,,,0.00,Wunderground v.1.15,2013-04-17 12:05:00,
2013-04-17 08:15:00,55.3,45.7,30.17,NE,39,2.0,2.0,70,0.00,,,0.00,Wunderground v.1.15,2013-04-17 12:15:00,
2013-04-17 08:20:00,55.3,45.3,30.17,NE,41,2.0,2.0,69,0.00,,,0.00,Wunderground v.1.15,2013-04-17 12:20:00,
2013-04-17 08:25:00,55.3,45.3,30.17,ENE,58,2.0,2.0,69,0.00,,,0.00,Wunderground v.1.15,2013-04-17 12:25:00,
2013-04-17 08:35:00,55.3,45.3,30.18,NNW,348,2.0,2.0,69,0.00,,,0.00,Wunderground v.1.15,2013-04-17 12:35:00,
2013-04-17 08:45:00,55.4,45.8,30.18,NE,48,2.0,2.0,70,0.00,,,0.00,Wunderground v.1.15,2013-04-17 12:45:00,
2013-04-17 08:55:00,55.3,45.3,30.18,North,5,2.0,2.0,69,0.00,,,0.00,Wunderground v.1.15,2013-04-17 12:55:00,
2013-04-17 09:05:00,55.4,45.0,30.18,NNE,18,2.0,3.0,68,0.00,,,0.00,Wunderground v.1.15,2013-04-17 13:05:00,
2013-04-17 09:15:00,55.4,45.4,30.18,NE,41,2.0,4.0,69,0.00,,,0.00,Wunderground v.1.15,2013-04-17 13:15:00,
2013-04-17 09:25:00,55.7,44.9,30.18,NE,49,2.0,2.0,67,0.00,,,0.00,Wunderground v.1.15,2013-04-17 13:25:00,
2013-04-17 09:35:00,56.2,45.4,30.18,NNE,30,2.0,2.0,67,0.00,,,0.00,Wunderground v.1.15,2013-04-17 13:35:00,
2013-04-17 09:45:00,56.5,45.3,30.18,ENE,59,3.0,3.0,66,0.00,,,0.00,Wunderground v.1.15,2013-04-17 13:45:00,
2013-04-17 09:55:00,58.7,45.7,30.18,East,81,2.0,4.0,62,0.00,,,0.00,Wunderground v.1.15,2013-04-17 13:55:00,
2013-04-17 10:10:00,60.2,46.3,30.18,East,93,4.0,5.0,60,0.00,,,0.00,Wunderground v.1.15,2013-04-17 14:10:00,
2013-04-17 10:15:00,60.9,47.8,30.18,NNW,342,3.0,5.0,62,0.00,,,0.00,Wunderground v.1.15,2013-04-17 14:15:00,
2013-04-17 10:25:00,61.0,46.1,30.18,NW,325,3.0,3.0,58,0.00,,,0.00,Wunderground v.1.15,2013-04-17 14:25:00,
2013-04-17 10:35:00,61.6,46.2,30.18,SE,126,2.0,5.0,57,0.00,,,0.00,Wunderground v.1.15,2013-04-17 14:35:00,
2013-04-17 10:45:00,61.6,44.3,30.18,North,360,4.0,7.0,53,0.00,,,0.00,Wunderground v.1.15,2013-04-17 14:45:00,
2013-04-17 10:55:00,62.7,46.3,30.18,North,10,2.0,3.0,55,0.00,,,0.00,Wunderground v.1.15,2013-04-17 14:55:00,
2013-04-17 11:05:00,62.1,45.2,30.18,North,360,4.0,6.0,54,0.00,,,0.00,Wunderground v.1.15,2013-04-17 15:05:00,
2013-04-17 11:15:00,62.7,45.3,30.18,NE,44,3.0,4.0,53,0.00,,,0.00,Wunderground v.1.15,2013-04-17 15:15:00,
2013-04-17 11:25:00,62.1,42.7,30.17,ENE,58,4.0,5.0,49,0.00,,,0.00,Wunderground v.1.15,2013-04-17 15:25:00,
2013-04-17 11:35:00,63.2,45.3,30.17,NNE,19,3.0,6.0,52,0.00,,,0.00,Wunderground v.1.15,2013-04-17 15:35:00,
2013-04-17 11:45:00,63.7,44.2,30.17,North,355,3.0,5.0,49,0.00,,,0.00,Wunderground v.1.15,2013-04-17 15:45:00,
2013-04-17 11:55:00,63.7,42.5,30.17,ESE,102,4.0,5.0,46,0.00,,,0.00,Wunderground v.1.15,2013-04-17 15:55:00,
2013-04-17 12:05:00,64.3,44.7,30.17,East,79,3.0,4.0,49,0.00,,,0.00,Wunderground v.1.15,2013-04-17 16:05:00,
2013-04-17 12:15:00,65.0,43.1,30.17,NNE,13,4.0,4.0,45,0.00,,,0.00,Wunderground v.1.15,2013-04-17 16:15:00,
2013-04-17 12:25:00,65.2,42.1,30.16,NNE,28,3.0,3.0,43,0.00,,,0.00,Wunderground v.1.15,2013-04-17 16:25:00,
2013-04-17 12:35:00,65.3,42.2,30.16,East,98,4.0,5.0,43,0.00,,,0.00,Wunderground v.1.15,2013-04-17 16:35:00,
2013-04-17 12:45:00,65.5,42.4,30.16,NE,37,4.0,4.0,43,0.00,,,0.00,Wunderground v.1.15,2013-04-17 16:45:00,
2013-04-17 12:55:00,66.1,41.1,30.16,North,5,3.0,4.0,40,0.00,,,0.00,Wunderground v.1.15,2013-04-17 16:55:00,
2013-04-17 13:06:00,66.3,43.1,30.16,ENE,77,3.0,4.0,43,0.00,,,0.00,Wunderground v.1.15,2013-04-17 17:06:00,
2013-04-17 13:15:00,65.6,40.6,30.16,East,83,4.0,5.0,40,0.00,,,0.00,Wunderground v.1.15,2013-04-17 17:15:00,
2013-04-17 13:25:00,66.1,41.1,30.15,NNE,31,4.0,5.0,40,0.00,,,0.00,Wunderground v.1.15,2013-04-17 17:25:00,
2013-04-17 13:35:00,65.5,37.8,30.15,East,82,5.0,8.0,36,0.00,,,0.00,Wunderground v.1.15,2013-04-17 17:35:00,
2013-04-17 13:45:00,66.1,43.5,30.15,ENE,65,3.0,4.0,44,0.00,,,0.00,Wunderground v.1.15,2013-04-17 17:45:00,
2013-04-17 13:55:00,66.9,41.1,30.15,North,355,3.0,3.0,39,0.00,,,0.00,Wunderground v.1.15,2013-04-17 17:55:00,
2013-04-17 14:05:00,67.1,39.2,30.16,ENE,59,3.0,7.0,36,0.00,,,0.00,Wunderground v.1.15,2013-04-17 18:05:00,
2013-04-17 14:15:00,66.6,38.8,30.16,ENE,67,4.0,4.0,36,0.00,,,0.00,Wunderground v.1.15,2013-04-17 18:15:00,
2013-04-17 14:25:00,66.0,38.3,30.16,NE,51,4.0,4.0,36,0.00,,,0.00,Wunderground v.1.15,2013-04-17 18:25:00,
2013-04-17 14:35:00,66.9,37.6,30.16,NE,34,3.0,6.0,34,0.00,,,0.00,Wunderground v.1.15,2013-04-17 18:35:00,
2013-04-17 14:45:00,66.4,37.2,30.16,ENE,76,3.0,4.0,34,0.00,,,0.00,Wunderground v.1.15,2013-04-17 18:45:00,
2013-04-17 14:55:00,66.6,37.3,30.17,NE,34,2.0,2.0,34,0.00,,,0.00,Wunderground v.1.15,2013-04-17 18:55:00,
2013-04-17 15:05:00,67.3,37.2,30.15,NNE,19,4.0,4.0,33,0.00,,,0.00,Wunderground v.1.15,2013-04-17 19:05:00,
2013-04-17 15:15:00,66.8,36.8,30.15,NW,318,3.0,9.0,33,0.00,,,0.00,Wunderground v.1.15,2013-04-17 19:15:00,
2013-04-17 15:25:00,66.8,36.0,30.15,East,83,3.0,3.0,32,0.00,,,0.00,Wunderground v.1.15,2013-04-17 19:25:00,
2013-04-17 15:35:00,66.6,37.3,30.15,NNE,23,3.0,3.0,34,0.00,,,0.00,Wunderground v.1.15,2013-04-17 19:35:00,
2013-04-17 15:45:00,66.6,36.6,30.15,NE,52,3.0,3.0,33,0.00,,,0.00,Wunderground v.1.15,2013-04-17 19:45:00,
2013-04-17 15:55:00,66.8,36.8,30.15,NE,48,3.0,5.0,33,0.00,,,0.00,Wunderground v.1.15,2013-04-17 19:55:00,
2013-04-17 16:05:00,66.4,35.6,30.15,NE,44,3.0,3.0,32,0.00,,,0.00,Wunderground v.1.15,2013-04-17 20:05:00,
2013-04-17 16:15:00,66.8,36.8,30.15,ENE,74,4.0,7.0,33,0.00,,,0.00,Wunderground v.1.15,2013-04-17 20:15:00,
2013-04-17 16:25:00,66.8,39.0,30.15,NE,51,3.0,4.0,36,0.00,,,0.00,Wunderground v.1.15,2013-04-17 20:25:00,
2013-04-17 16:35:00,66.8,36.8,30.15,ENE,57,3.0,3.0,33,0.00,,,0.00,Wunderground v.1.15,2013-04-17 20:35:00,
2013-04-17 16:45:00,66.9,35.3,30.15,ENE,57,3.0,6.0,31,0.00,,,0.00,Wunderground v.1.15,2013-04-17 20:45:00,
2013-04-17 16:55:00,66.9,35.3,30.15,NE,44,4.0,4.0,31,0.00,,,0.00,Wunderground v.1.15,2013-04-17 20:55:00,
2013-04-17 17:05:00,66.8,36.0,30.15,ESE,118,3.0,5.0,32,0.00,,,0.00,Wunderground v.1.15,2013-04-17 21:05:00,
2013-04-17 17:15:00,67.1,35.4,30.15,ENE,78,2.0,3.0,31,0.00,,,0.00,Wunderground v.1.15,2013-04-17 21:15:00,
2013-04-17 17:25:00,67.3,37.2,30.16,NE,54,3.0,4.0,33,0.00,,,0.00,Wunderground v.1.15,2013-04-17 21:25:00,
2013-04-17 17:35:00,67.3,36.4,30.16,NE,40,3.0,3.0,32,0.00,,,0.00,Wunderground v.1.15,2013-04-17 21:35:00,
2013-04-17 17:45:00,67.1,36.2,30.16,East,80,2.0,4.0,32,0.00,,,0.00,Wunderground v.1.15,2013-04-17 21:45:00,
2013-04-17 17:55:00,67.3,36.4,30.17,East,80,1.0,2.0,32,0.00,,,0.00,Wunderground v.1.15,2013-04-17 21:55:00,
2013-04-17 18:05:00,66.9,36.1,30.17,ENE,59,3.0,7.0,32,0.00,,,0.00,Wunderground v.1.15,2013-04-17 22:05:00,
2013-04-17 18:15:00,66.9,36.1,30.17,ESE,108,1.0,3.0,32,0.00,,,0.00,Wunderground v.1.15,2013-04-17 22:15:00,
2013-04-17 18:25:00,66.6,36.6,30.17,ESE,121,2.0,2.0,33,0.00,,,0.00,Wunderground v.1.15,2013-04-17 22:25:00,
2013-04-17 18:35:00,66.4,34.8,30.17,ENE,67,2.0,2.0,31,0.00,,,0.00,Wunderground v.1.15,2013-04-17 22:35:00,
2013-04-17 18:45:00,66.4,34.8,30.17,NE,42,1.0,4.0,31,0.00,,,0.00,Wunderground v.1.15,2013-04-17 22:45:00,
2013-04-17 18:55:00,66.3,35.5,30.17,ENE,78,2.0,3.0,32,0.00,,,0.00,Wunderground v.1.15,2013-04-17 22:55:00,
2013-04-17 19:05:00,65.3,34.7,30.18,ENE,78,1.0,1.0,32,0.00,,,0.00,Wunderground v.1.15,2013-04-17 23:05:00,
2013-04-17 19:15:00,65.3,35.4,30.18,ENE,65,1.0,2.0,33,0.00,,,0.00,Wunderground v.1.15,2013-04-17 23:15:00,
2013-04-17 19:25:00,64.7,36.4,30.18,ENE,65,0.0,2.0,35,0.00,,,0.00,Wunderground v.1.15,2013-04-17 23:25:00,
2013-04-17 19:35:00,63.4,34.5,30.18,East,85,1.0,1.0,34,0.00,,,0.00,Wunderground v.1.15,2013-04-17 23:35:00,
2013-04-17 19:45:00,63.2,34.3,30.18,East,85,0.0,1.0,34,0.00,,,0.00,Wunderground v.1.15,2013-04-17 23:45:00,
2013-04-17 19:55:00,61.6,37.7,30.19,East,85,0.0,0.0,41,0.00,,,0.00,Wunderground v.1.15,2013-04-17 23:55:00,
2013-04-17 20:05:00,59.5,37.6,30.19,East,85,0.0,0.0,44,0.00,,,0.00,Wunderground v.1.15,2013-04-18 00:05:00,
2013-04-17 20:15:00,58.9,38.1,30.19,East,85,0.0,0.0,46,0.00,,,0.00,Wunderground v.1.15,2013-04-18 00:15:00,
2013-04-17 20:25:00,58.3,37.6,30.20,East,85,0.0,0.0,46,0.00,,,0.00,Wunderground v.1.15,2013-04-18 00:25:00,
2013-04-17 20:35:00,58.1,38.5,30.20,East,85,0.0,0.0,48,0.00,,,0.00,Wunderground v.1.15,2013-04-18 00:35:00,
2013-04-17 20:45:00,57.3,38.8,30.20,East,85,0.0,0.0,50,0.00,,,0.00,Wunderground v.1.15,2013-04-18 00:45:00,
2013-04-17 20:55:00,57.0,38.0,30.21,East,85,0.0,0.0,49,0.00,,,0.00,Wunderground v.1.15,2013-04-18 00:55:00,
2013-04-17 21:05:00,56.9,39.4,30.22,East,85,1.0,1.0,52,0.00,,,0.00,Wunderground v.1.15,2013-04-18 01:05:00,
2013-04-17 21:15:00,55.9,39.0,30.22,East,85,0.0,1.0,53,0.00,,,0.00,Wunderground v.1.15,2013-04-18 01:15:00,
2013-04-17 21:25:00,55.7,39.3,30.23,East,85,0.0,0.0,54,0.00,,,0.00,Wunderground v.1.15,2013-04-18 01:25:00,
2013-04-17 21:35:00,55.0,39.6,30.23,East,85,0.0,0.0,56,0.00,,,0.00,Wunderground v.1.15,2013-04-18 01:35:00,
2013-04-17 21:45:00,54.5,39.1,30.23,East,85,0.0,0.0,56,0.00,,,0.00,Wunderground v.1.15,2013-04-18 01:45:00,
2013-04-17 21:55:00,53.9,39.9,30.23,East,85,0.0,0.0,59,0.00,,,0.00,Wunderground v.1.15,2013-04-18 01:55:00,
2013-04-17 22:05:00,53.2,39.2,30.23,East,85,0.0,0.0,59,0.00,,,0.00,Wunderground v.1.15,2013-04-18 02:05:00,
2013-04-17 22:15:00,52.9,39.0,30.23,East,85,0.0,0.0,59,0.00,,,0.00,Wunderground v.1.15,2013-04-18 02:15:00,
2013-04-17 22:25:00,52.2,39.1,30.23,East,85,0.0,0.0,61,0.00,,,0.00,Wunderground v.1.15,2013-04-18 02:25:00,
2013-04-17 22:35:00,51.7,39.5,30.23,East,85,0.0,0.0,63,0.00,,,0.00,Wunderground v.1.15,2013-04-18 02:35:00,
2013-04-17 22:45:00,51.4,39.2,30.23,East,85,0.0,0.0,63,0.00,,,0.00,Wunderground v.1.15,2013-04-18 02:45:00,
2013-04-17 22:55:00,51.7,39.1,30.23,East,85,0.0,0.0,62,0.00,,,0.00,Wunderground v.1.15,2013-04-18 02:55:00,
2013-04-17 23:05:00,51.1,39.3,30.23,East,85,0.0,0.0,64,0.00,,,0.00,Wunderground v.1.15,2013-04-18 03:05:00,
2013-04-17 23:15:00,50.7,40.1,30.23,East,85,0.0,0.0,67,0.00,,,0.00,Wunderground v.1.15,2013-04-18 03:15:00,
2013-04-17 23:25:00,50.4,39.5,30.23,East,85,0.0,0.0,66,0.00,,,0.00,Wunderground v.1.15,2013-04-18 03:25:00,
2013-04-17 23:35:00,49.8,39.3,30.24,East,85,0.0,1.0,67,0.00,,,0.00,Wunderground v.1.15,2013-04-18 03:35:00,
2013-04-17 23:45:00,49.5,39.4,30.24,East,85,0.0,1.0,68,0.00,,,0.00,Wunderground v.1.15,2013-04-18 03:45:00,
2013-04-17 23:55:00,49.2,39.5,30.25,East,85,0.0,0.0,69,0.00,,,0.00,Wunderground v.1.15,2013-04-18 03:55:00,